createdAt,value
2023-05-10T00:01:09.464Z,14.93
2023-05-10T00:03:36.245Z,15.23
2023-05-10T00:06:02.903Z,17.47
2023-05-10T00:08:29.655Z,18.37
2023-05-10T00:10:56.190Z,18.70
2023-05-10T00:13:23.070Z,17.87
2023-05-10T00:15:49.703Z,17.47
2023-05-10T00:18:16.460Z,19.37
2023-05-10T00:20:43.025Z,19.57
2023-05-10T00:23:09.524Z,18.93
2023-05-10T00:25:36.059Z,19.33
2023-05-10T00:28:02.696Z,20.53
2023-05-10T00:30:29.350Z,19.53
2023-05-10T00:32:56.014Z,19.03
2023-05-10T00:35:22.712Z,18.97
2023-05-10T00:37:49.339Z,18.17
2023-05-10T00:40:16.440Z,18.33
2023-05-10T00:42:43.126Z,19.87
2023-05-10T00:45:09.856Z,19.43
2023-05-10T00:47:36.812Z,21.07
2023-05-10T00:50:03.988Z,20.77
2023-05-10T00:52:31.362Z,20.13
2023-05-10T00:54:58.188Z,20.63
2023-05-10T00:57:25.337Z,18.57
2023-05-10T00:59:52.296Z,17.60
2023-05-10T01:02:18.864Z,18.27
2023-05-10T01:04:45.465Z,17.47
2023-05-10T01:07:12.297Z,16.67
2023-05-10T01:09:39.011Z,16.40
2023-05-10T01:12:07.743Z,15.93
2023-05-10T01:14:35.295Z,15.50
2023-05-10T01:17:02.318Z,16.10
2023-05-10T01:19:31.430Z,16.90
2023-05-10T01:22:24.889Z,16.80
2023-05-10T01:24:57.426Z,15.90
2023-05-10T01:27:38.479Z,19.47
2023-05-10T01:30:49.766Z,18.93
2023-05-10T01:33:22.067Z,20.83
2023-05-10T01:35:52.773Z,21.13
2023-05-10T01:38:52.528Z,20.73
2023-05-10T01:41:53.852Z,22.33
2023-05-10T01:44:41.122Z,23.00
2023-05-10T01:47:24.277Z,23.27
2023-05-10T01:49:54.071Z,25.30
2023-05-10T01:52:27.903Z,25.67
2023-05-10T01:55:00.019Z,25.00
2023-05-10T01:57:29.088Z,24.40
2023-05-10T01:59:57.108Z,24.83
2023-05-10T02:02:25.401Z,24.13
2023-05-10T02:04:54.276Z,22.50
2023-05-10T02:07:21.800Z,23.53
2023-05-10T02:09:49.080Z,23.23
2023-05-10T02:12:16.932Z,22.90
2023-05-10T02:14:44.818Z,23.37
2023-05-10T02:17:12.947Z,23.50
2023-05-10T02:19:41.589Z,24.87
2023-05-10T02:22:09.784Z,23.77
2023-05-10T02:24:37.675Z,23.27
2023-05-10T02:27:05.543Z,25.13
2023-05-10T02:29:34.312Z,23.47
2023-05-10T02:32:01.675Z,24.00
2023-05-10T02:34:28.976Z,23.77
2023-05-10T02:36:57.265Z,23.27
2023-05-10T02:39:25.572Z,23.87
2023-05-10T02:41:53.559Z,21.87
2023-05-10T02:44:21.404Z,18.77
2023-05-10T02:46:48.762Z,22.10
2023-05-10T02:49:16.076Z,22.93
2023-05-10T02:51:48.452Z,20.93
2023-05-10T02:54:28.236Z,20.40
2023-05-10T02:57:06.954Z,21.17
2023-05-10T02:59:33.633Z,20.73
2023-05-10T03:02:01.619Z,20.97
2023-05-10T03:04:28.249Z,19.43
2023-05-10T03:06:55.123Z,16.43
2023-05-10T03:09:22.335Z,18.50
2023-05-10T03:12:01.383Z,18.13
2023-05-10T03:14:52.790Z,17.50
2023-05-10T03:17:51.637Z,16.03
2023-05-10T03:20:42.227Z,15.43
2023-05-10T03:23:20.910Z,16.90
2023-05-10T03:25:49.822Z,17.97
2023-05-10T03:28:18.559Z,16.77
2023-05-10T03:30:46.255Z,17.43
2023-05-10T03:33:14.009Z,15.57
2023-05-10T03:35:40.616Z,17.27
2023-05-10T03:38:07.127Z,17.00
2023-05-10T03:40:33.857Z,18.23
2023-05-10T03:43:00.631Z,18.30
2023-05-10T03:45:27.650Z,16.67
2023-05-10T03:47:54.795Z,17.27
2023-05-10T03:50:21.873Z,16.93
2023-05-10T03:52:48.688Z,17.83
2023-05-10T03:55:15.397Z,18.17
2023-05-10T03:57:41.918Z,17.80
2023-05-10T04:00:09.247Z,18.53
2023-05-10T04:02:35.895Z,18.33
2023-05-10T04:05:03.430Z,18.60
2023-05-10T04:07:30.191Z,19.03
2023-05-10T04:09:56.801Z,18.43
2023-05-10T04:12:23.327Z,18.77
2023-05-10T04:14:49.820Z,18.10
2023-05-10T04:17:16.533Z,18.63
2023-05-10T04:19:43.107Z,18.63
2023-05-10T04:22:09.688Z,19.40
2023-05-10T04:24:36.188Z,19.20
2023-05-10T04:27:02.729Z,19.70
2023-05-10T04:29:29.314Z,19.70
2023-05-10T04:31:56.150Z,20.43
2023-05-10T04:34:22.745Z,19.03
2023-05-10T04:36:49.254Z,20.60
2023-05-10T04:39:15.962Z,20.07
2023-05-10T04:41:42.495Z,21.47
2023-05-10T04:44:09.013Z,20.30
2023-05-10T04:46:35.580Z,20.33
2023-05-10T04:49:02.105Z,21.20
2023-05-10T04:51:28.643Z,22.03
2023-05-10T04:54:05.225Z,19.03
2023-05-10T04:56:33.505Z,21.37
2023-05-10T04:59:00.089Z,21.23
2023-05-10T05:01:26.746Z,19.50
2023-05-10T05:03:54.170Z,21.73
2023-05-10T05:06:21.866Z,21.90
2023-05-10T05:08:50.085Z,21.73
2023-05-10T05:11:16.871Z,20.87
2023-05-10T05:13:43.408Z,21.87
2023-05-10T05:16:10.066Z,22.03
2023-05-10T05:18:36.983Z,22.50
2023-05-10T05:21:03.710Z,22.60
2023-05-10T05:23:30.996Z,22.07
2023-05-10T05:25:57.532Z,23.13
2023-05-10T05:28:24.052Z,22.47
2023-05-10T05:30:50.804Z,22.87
2023-05-10T05:33:17.520Z,25.37
2023-05-10T05:35:48.357Z,24.50
2023-05-10T05:38:15.234Z,23.03
2023-05-10T05:40:41.739Z,25.10
2023-05-10T05:43:08.326Z,23.10
2023-05-10T05:45:35.039Z,23.73
2023-05-10T05:48:02.094Z,24.70
2023-05-10T05:50:28.898Z,23.87
2023-05-10T05:52:55.964Z,24.77
2023-05-10T05:55:22.472Z,23.40
2023-05-10T05:57:48.993Z,24.63
2023-05-10T06:00:16.220Z,23.10
2023-05-10T06:02:42.868Z,25.37
2023-05-10T06:05:09.850Z,24.27
2023-05-10T06:07:36.545Z,24.93
2023-05-10T06:10:03.768Z,23.10
2023-05-10T06:12:30.286Z,24.03
2023-05-10T06:14:56.916Z,24.00
2023-05-10T06:17:23.434Z,23.87
2023-05-10T06:19:50.007Z,23.63
2023-05-10T06:22:16.658Z,25.43
2023-05-10T06:24:44.388Z,25.63
2023-05-10T06:27:10.915Z,22.60
2023-05-10T06:29:37.569Z,24.73
2023-05-10T06:32:04.279Z,24.40
2023-05-10T06:34:31.081Z,24.47
2023-05-10T06:36:57.653Z,24.23
2023-05-10T06:39:24.233Z,23.73
2023-05-10T06:41:50.837Z,24.53
2023-05-10T06:44:17.376Z,25.73
2023-05-10T06:46:44.075Z,24.43
2023-05-10T06:49:10.723Z,25.00
2023-05-10T06:51:37.206Z,23.30
2023-05-10T06:54:04.067Z,24.63
2023-05-10T06:56:30.590Z,23.57
2023-05-10T06:58:57.136Z,23.67
2023-05-10T07:01:23.986Z,22.87
2023-05-10T07:03:50.601Z,23.77
2023-05-10T07:06:29.470Z,23.90
2023-05-10T07:08:59.240Z,23.50
2023-05-10T07:11:25.774Z,24.13
2023-05-10T07:13:52.507Z,22.67
2023-05-10T07:16:19.228Z,23.53
2023-05-10T07:18:45.771Z,23.27
2023-05-10T07:21:12.361Z,24.37
2023-05-10T07:23:38.895Z,23.13
2023-05-10T07:26:05.401Z,23.80
2023-05-10T07:28:32.146Z,25.27
2023-05-10T07:30:58.720Z,23.57
2023-05-10T07:33:25.305Z,25.40
2023-05-10T07:35:51.859Z,25.00
2023-05-10T07:38:18.414Z,25.17
2023-05-10T07:40:45.010Z,24.00
2023-05-10T07:43:11.562Z,22.87
2023-05-10T07:45:38.138Z,21.77
2023-05-10T07:48:04.684Z,21.63
2023-05-10T07:50:31.343Z,22.43
2023-05-10T07:52:58.042Z,22.27
2023-05-10T07:55:24.632Z,19.83
2023-05-10T07:57:51.265Z,21.07
2023-05-10T08:00:19.369Z,22.20
2023-05-10T08:02:46.370Z,22.17
2023-05-10T08:05:13.273Z,25.27
2023-05-10T08:07:39.957Z,26.43
2023-05-10T08:10:07.271Z,25.03
2023-05-10T08:12:33.768Z,25.10
2023-05-10T08:15:00.353Z,22.57
2023-05-10T08:17:26.952Z,22.50
2023-05-10T08:19:53.536Z,20.40
2023-05-10T08:22:20.094Z,21.63
2023-05-10T08:24:46.599Z,19.67
2023-05-10T08:27:13.543Z,20.10
2023-05-10T08:29:49.458Z,19.67
2023-05-10T08:32:17.450Z,17.50
2023-05-10T08:34:44.088Z,16.87
2023-05-10T08:37:13.773Z,16.77
2023-05-10T08:39:40.659Z,16.63
2023-05-10T08:42:09.107Z,15.67
2023-05-10T08:44:37.277Z,13.63
2023-05-10T08:47:07.508Z,14.03
2023-05-10T08:49:34.847Z,12.97
2023-05-10T08:52:04.878Z,13.67
2023-05-10T08:54:33.098Z,11.97
2023-05-10T08:56:59.816Z,13.30
2023-05-10T08:59:26.627Z,11.17
2023-05-10T09:01:54.799Z,11.90
2023-05-10T09:04:22.320Z,11.47
2023-05-10T09:06:49.117Z,10.90
2023-05-10T09:09:16.980Z,11.23
2023-05-10T09:11:44.216Z,10.47
2023-05-10T09:14:11.137Z,10.57
2023-05-10T09:16:38.391Z,11.00
2023-05-10T09:19:05.109Z,10.03
2023-05-10T09:21:32.296Z,10.23
2023-05-10T09:24:05.369Z,10.83
2023-05-10T09:26:33.203Z,12.47
2023-05-10T09:29:00.896Z,12.60
2023-05-10T09:31:55.581Z,14.60
2023-05-10T09:34:33.613Z,13.83
2023-05-10T09:37:02.244Z,13.53
2023-05-10T09:39:37.355Z,13.07
2023-05-10T09:42:09.772Z,13.50
2023-05-10T09:44:36.906Z,11.00
2023-05-10T09:47:03.798Z,9.67
2023-05-10T09:49:30.763Z,10.10
2023-05-10T09:52:08.168Z,9.67
2023-05-10T09:54:35.466Z,9.60
2023-05-10T09:57:02.101Z,9.80
2023-05-10T09:59:29.538Z,9.23
2023-05-10T10:02:00.977Z,9.73
2023-05-10T10:04:27.699Z,10.00
2023-05-10T10:07:04.936Z,10.80
2023-05-10T10:09:32.340Z,8.33
2023-05-10T10:11:59.784Z,9.00
2023-05-10T10:14:26.534Z,9.10
2023-05-10T10:17:06.527Z,9.07
2023-05-10T10:19:36.412Z,9.30
2023-05-10T10:22:03.615Z,8.40
2023-05-10T10:24:30.212Z,7.53
2023-05-10T10:27:08.061Z,8.40
2023-05-10T10:29:53.260Z,8.00
2023-05-10T10:32:28.813Z,7.57
2023-05-10T10:34:56.432Z,7.77
2023-05-10T10:37:22.936Z,7.10
2023-05-10T10:39:54.136Z,7.80
2023-05-10T10:42:47.012Z,6.77
2023-05-10T10:45:14.475Z,7.30
2023-05-10T10:47:41.351Z,8.00
2023-05-10T10:50:09.098Z,7.23
2023-05-10T10:52:40.707Z,7.13
2023-05-10T10:55:19.827Z,8.03
2023-05-10T10:57:49.556Z,7.50
2023-05-10T11:00:22.586Z,7.87
2023-05-10T11:02:52.741Z,7.03
2023-05-10T11:05:28.507Z,7.53
2023-05-10T11:07:59.475Z,7.50
2023-05-10T11:10:27.031Z,7.30
2023-05-10T11:13:03.488Z,8.20
2023-05-10T11:15:34.873Z,8.77
2023-05-10T11:18:20.898Z,8.70
2023-05-10T11:20:59.576Z,8.00
2023-05-10T11:23:48.051Z,8.73
2023-05-10T11:26:15.366Z,7.10
2023-05-10T11:28:49.734Z,7.97
2023-05-10T11:31:17.766Z,8.07
2023-05-10T11:33:52.399Z,8.07
2023-05-10T11:36:26.244Z,7.30
2023-05-10T11:38:52.904Z,7.63
2023-05-10T11:41:23.860Z,8.10
2023-05-10T11:43:52.370Z,8.10
2023-05-10T11:46:21.624Z,7.23
2023-05-10T11:48:51.789Z,6.70
2023-05-10T11:51:25.924Z,6.50
2023-05-10T11:53:55.812Z,6.63
2023-05-10T11:56:22.691Z,6.60
2023-05-10T11:58:58.106Z,6.30
2023-05-10T12:01:28.410Z,6.93
2023-05-10T12:04:01.427Z,6.43
2023-05-10T12:06:30.276Z,6.77
2023-05-10T12:08:56.880Z,6.63
2023-05-10T12:11:27.064Z,6.90
2023-05-10T12:13:54.406Z,6.40
2023-05-10T12:16:26.083Z,6.30
2023-05-10T12:18:54.655Z,6.70
2023-05-10T12:21:21.979Z,5.87
2023-05-10T12:23:51.920Z,6.77
2023-05-10T12:26:19.024Z,6.80
2023-05-10T12:28:45.669Z,6.07
2023-05-10T12:31:12.284Z,6.00
2023-05-10T12:33:43.852Z,5.60
2023-05-10T12:36:11.653Z,6.82
2023-05-10T12:38:48.899Z,5.75
2023-05-10T12:41:17.691Z,6.18
2023-05-10T12:43:44.740Z,5.88
2023-05-10T12:46:15.523Z,5.70
2023-05-10T12:48:43.609Z,6.03
2023-05-10T12:51:12.599Z,5.60
2023-05-10T12:53:40.910Z,5.00
2023-05-10T12:56:09.081Z,5.80
2023-05-10T12:58:36.405Z,6.97
2023-05-10T13:01:03.671Z,6.13
2023-05-10T13:03:30.559Z,6.83
2023-05-10T13:05:57.249Z,6.37
2023-05-10T13:08:23.860Z,6.67
2023-05-10T13:10:50.619Z,7.17
2023-05-10T13:13:17.144Z,7.67
2023-05-10T13:15:43.669Z,7.60
2023-05-10T13:18:10.423Z,7.73
2023-05-10T13:20:37.410Z,8.10
2023-05-10T13:23:04.024Z,8.13
2023-05-10T13:25:31.062Z,7.57
2023-05-10T13:27:57.637Z,6.80
2023-05-10T13:30:25.019Z,7.53
2023-05-10T13:32:51.721Z,7.33
2023-05-10T13:35:18.475Z,6.77
2023-05-10T13:37:45.045Z,7.07
2023-05-10T13:40:11.831Z,6.30
2023-05-10T13:42:38.471Z,7.20
2023-05-10T13:45:05.600Z,6.57
2023-05-10T13:47:32.434Z,6.37
2023-05-10T13:49:59.254Z,6.50
2023-05-10T13:52:26.039Z,6.50
2023-05-10T13:54:55.672Z,6.67
2023-05-10T13:57:22.745Z,7.40
2023-05-10T13:59:49.411Z,7.00
2023-05-10T14:02:15.945Z,6.27
2023-05-10T14:04:42.508Z,6.00
2023-05-10T14:07:09.336Z,6.23
2023-05-10T14:09:35.841Z,7.47
2023-05-10T14:12:02.928Z,7.00
2023-05-10T14:14:30.320Z,7.10
2023-05-10T14:16:56.878Z,7.20
2023-05-10T14:19:23.496Z,6.47
2023-05-10T14:21:50.009Z,6.00
2023-05-10T14:24:16.508Z,6.70
2023-05-10T14:26:43.047Z,5.90
2023-05-10T14:29:11.547Z,6.20
2023-05-10T14:31:39.106Z,5.93
2023-05-10T14:34:06.501Z,5.70
2023-05-10T14:36:33.186Z,6.20
2023-05-10T14:38:59.696Z,6.40
2023-05-10T14:41:26.255Z,7.30
2023-05-10T14:43:53.065Z,5.97
2023-05-10T14:46:19.644Z,5.70
2023-05-10T14:48:46.241Z,4.97
2023-05-10T14:51:12.939Z,4.83
2023-05-10T14:53:39.433Z,5.20
2023-05-10T14:56:06.371Z,5.43
2023-05-10T14:58:34.326Z,5.47
2023-05-10T15:01:01.526Z,4.90
2023-05-10T15:03:28.691Z,5.27
2023-05-10T15:05:56.993Z,5.50
2023-05-10T15:08:25.352Z,5.37
2023-05-10T15:10:52.755Z,5.63
2023-05-10T15:13:19.287Z,5.53
2023-05-10T15:15:45.837Z,5.77
2023-05-10T15:18:12.723Z,5.00
2023-05-10T15:20:39.469Z,5.40
2023-05-10T15:23:06.078Z,6.07
2023-05-10T15:25:35.575Z,5.37
2023-05-10T15:28:03.340Z,5.73
2023-05-10T15:30:29.993Z,5.60
2023-05-10T15:32:56.949Z,5.70
2023-05-10T15:35:23.508Z,5.10
2023-05-10T15:37:50.742Z,5.57
2023-05-10T15:40:17.504Z,4.80
2023-05-10T15:42:44.142Z,5.47
2023-05-10T15:45:11.972Z,5.30
2023-05-10T15:47:40.394Z,5.40
2023-05-10T15:50:08.109Z,5.60
2023-05-10T15:52:34.938Z,5.20
2023-05-10T15:55:01.490Z,5.07
2023-05-10T15:57:28.013Z,5.50
2023-05-10T15:59:54.541Z,5.30
2023-05-10T16:02:22.278Z,6.00
2023-05-10T16:04:48.904Z,6.40
2023-05-10T16:07:15.549Z,5.97
2023-05-10T16:09:42.497Z,5.20
2023-05-10T16:12:09.050Z,5.47
2023-05-10T16:14:35.883Z,5.50
2023-05-10T16:17:04.203Z,5.10
2023-05-10T16:19:31.148Z,5.50
2023-05-10T16:21:57.767Z,5.27
2023-05-10T16:24:25.139Z,5.00
2023-05-10T16:26:51.910Z,5.23
2023-05-10T16:29:18.431Z,5.10
2023-05-10T16:31:44.983Z,5.30
2023-05-10T16:34:11.581Z,4.77
2023-05-10T16:36:38.775Z,4.70
2023-05-10T16:39:05.383Z,4.73
2023-05-10T16:41:35.196Z,4.90
2023-05-10T16:44:02.363Z,4.60
2023-05-10T16:46:29.211Z,4.57
2023-05-10T16:48:56.047Z,4.10
2023-05-10T16:51:22.586Z,4.90
2023-05-10T16:53:49.145Z,4.40
2023-05-10T16:56:17.639Z,3.80
2023-05-10T16:58:44.333Z,4.27
2023-05-10T17:01:11.009Z,4.10
2023-05-10T17:03:37.638Z,4.00
2023-05-10T17:06:05.857Z,3.77
2023-05-10T17:08:32.797Z,3.83
2023-05-10T17:11:03.716Z,3.80
2023-05-10T17:13:31.020Z,4.00
2023-05-10T17:15:57.981Z,3.97
2023-05-10T17:18:26.419Z,4.20
2023-05-10T17:20:52.966Z,4.07
2023-05-10T17:23:19.566Z,4.10
2023-05-10T17:25:46.226Z,4.13
2023-05-10T17:28:12.819Z,4.60
2023-05-10T17:30:39.345Z,4.47
2023-05-10T17:33:06.167Z,4.40
2023-05-10T17:35:32.783Z,4.90
2023-05-10T17:37:59.372Z,4.53
2023-05-10T17:40:25.969Z,4.93
2023-05-10T17:42:52.533Z,4.67
2023-05-10T17:45:19.352Z,4.80
2023-05-10T17:47:46.202Z,5.10
2023-05-10T17:50:12.843Z,4.47
2023-05-10T17:52:39.446Z,5.20
2023-05-10T17:55:06.596Z,4.77
2023-05-10T17:57:33.338Z,4.73
2023-05-10T18:00:00.072Z,4.87
2023-05-10T18:02:26.762Z,4.80
2023-05-10T18:04:53.445Z,4.40
2023-05-10T18:07:21.884Z,4.90
2023-05-10T18:09:48.390Z,4.90
2023-05-10T18:12:14.917Z,4.80
2023-05-10T18:14:41.829Z,4.60
2023-05-10T18:17:09.532Z,4.77
2023-05-10T18:19:36.296Z,5.00
2023-05-10T18:22:02.991Z,5.00
2023-05-10T18:24:39.277Z,4.80
2023-05-10T18:27:10.082Z,5.00
2023-05-10T18:29:36.878Z,4.83
2023-05-10T18:32:03.508Z,4.97
2023-05-10T18:34:30.061Z,5.37
2023-05-10T18:36:56.895Z,5.60
2023-05-10T18:39:24.206Z,5.50
2023-05-10T18:41:50.914Z,5.37
2023-05-10T18:44:18.679Z,5.40
2023-05-10T18:46:45.365Z,6.17
2023-05-10T18:49:12.022Z,5.90
2023-05-10T18:51:38.537Z,6.80
2023-05-10T18:54:05.143Z,6.60
2023-05-10T18:56:31.661Z,6.27
2023-05-10T18:58:58.202Z,6.93
2023-05-10T19:01:24.880Z,7.50
2023-05-10T19:03:51.421Z,8.77
2023-05-10T19:06:17.938Z,8.97
2023-05-10T19:08:44.435Z,10.03
2023-05-10T19:11:11.031Z,10.80
2023-05-10T19:13:37.588Z,9.87
2023-05-10T19:16:20.196Z,10.87
2023-05-10T19:18:47.234Z,11.10
2023-05-10T19:21:13.930Z,11.83
2023-05-10T19:23:41.813Z,11.93
2023-05-10T19:26:09.537Z,10.93
2023-05-10T19:28:37.583Z,11.80
2023-05-10T19:31:04.195Z,11.57
2023-05-10T19:33:31.485Z,11.20
2023-05-10T19:35:58.004Z,11.73
2023-05-10T19:38:25.320Z,11.07
2023-05-10T19:40:57.848Z,12.33
2023-05-10T19:43:25.654Z,13.13
2023-05-10T19:45:52.677Z,13.47
2023-05-10T19:48:19.451Z,11.93
2023-05-10T19:50:45.948Z,12.70
2023-05-10T19:53:12.717Z,12.30
2023-05-10T19:55:39.340Z,12.50
2023-05-10T19:58:05.939Z,12.63
2023-05-10T20:00:32.525Z,12.00
2023-05-10T20:02:59.196Z,11.37
2023-05-10T20:05:25.782Z,11.87
2023-05-10T20:07:52.403Z,12.53
2023-05-10T20:10:19.082Z,10.83
2023-05-10T20:12:50.982Z,12.10
2023-05-10T20:15:21.611Z,12.13
2023-05-10T20:17:50.980Z,12.10
2023-05-10T20:20:18.477Z,11.93
2023-05-10T20:22:46.153Z,12.53
2023-05-10T20:25:13.259Z,12.73
2023-05-10T20:27:39.847Z,13.17
2023-05-10T20:30:07.419Z,13.03
2023-05-10T20:32:34.663Z,13.07
2023-05-10T20:35:01.444Z,13.83
2023-05-10T20:37:28.552Z,15.17
2023-05-10T20:39:55.431Z,15.27
2023-05-10T20:42:22.715Z,15.67
2023-05-10T20:44:49.774Z,16.97
2023-05-10T20:47:17.004Z,16.00
2023-05-10T20:49:43.980Z,15.30
2023-05-10T20:52:10.610Z,14.33
2023-05-10T20:54:37.176Z,15.07
2023-05-10T20:57:03.677Z,15.73
2023-05-10T20:59:30.290Z,15.53
2023-05-10T21:01:57.402Z,15.30
2023-05-10T21:04:25.349Z,15.93
2023-05-10T21:06:52.849Z,17.47
2023-05-10T21:09:19.420Z,17.73
2023-05-10T21:11:45.973Z,17.17
2023-05-10T21:14:12.668Z,17.93
2023-05-10T21:16:39.313Z,19.13
2023-05-10T21:19:07.395Z,19.50
2023-05-10T21:21:34.402Z,19.77
2023-05-10T21:24:01.041Z,19.43
2023-05-10T21:26:27.622Z,19.57
2023-05-10T21:28:54.220Z,20.27
2023-05-10T21:31:20.896Z,17.73
2023-05-10T21:33:47.533Z,16.20
2023-05-10T21:36:14.140Z,15.77
2023-05-10T21:38:42.154Z,17.23
2023-05-10T21:41:08.659Z,19.00
2023-05-10T21:43:35.240Z,19.10
2023-05-10T21:46:01.880Z,20.13
2023-05-10T21:48:28.429Z,19.77
2023-05-10T21:50:54.973Z,19.60
2023-05-10T21:53:22.213Z,19.27
2023-05-10T21:55:48.885Z,20.53
2023-05-10T21:58:15.816Z,19.63
2023-05-10T22:00:42.467Z,20.33
2023-05-10T22:03:09.131Z,19.87
2023-05-10T22:05:35.776Z,21.20
2023-05-10T22:08:02.351Z,21.53
2023-05-10T22:10:29.288Z,22.93
2023-05-10T22:12:55.897Z,23.10
2023-05-10T22:15:22.535Z,22.87
2023-05-10T22:17:49.314Z,23.40
2023-05-10T22:20:16.101Z,23.20
2023-05-10T22:22:42.806Z,23.63
2023-05-10T22:25:09.558Z,24.50
2023-05-10T22:27:36.498Z,24.93
2023-05-10T22:30:04.032Z,23.40
2023-05-10T22:32:31.731Z,24.00
2023-05-10T22:34:58.638Z,24.90
2023-05-10T22:37:25.139Z,25.07
2023-05-10T22:39:52.293Z,25.63
2023-05-10T22:42:18.863Z,26.00
2023-05-10T22:44:45.378Z,25.90
2023-05-10T22:47:11.950Z,25.13
2023-05-10T22:49:38.510Z,26.50
2023-05-10T22:52:05.249Z,24.23
2023-05-10T22:54:32.747Z,25.40
2023-05-10T22:57:00.849Z,25.53
2023-05-10T22:59:28.521Z,25.97
2023-05-10T23:01:55.300Z,25.60
2023-05-10T23:04:21.887Z,26.17
2023-05-10T23:06:48.453Z,23.27
2023-05-10T23:09:14.963Z,19.97
2023-05-10T23:11:41.792Z,19.60
2023-05-10T23:14:08.300Z,18.57
2023-05-10T23:16:34.916Z,18.57
2023-05-10T23:19:01.875Z,17.73
2023-05-10T23:21:31.916Z,16.60
2023-05-10T23:23:58.774Z,16.40
2023-05-10T23:26:25.445Z,17.20
2023-05-10T23:28:52.071Z,16.67
2023-05-10T23:31:18.685Z,16.67
2023-05-10T23:33:45.267Z,18.57
2023-05-10T23:36:12.276Z,18.23
2023-05-10T23:38:39.264Z,17.73
2023-05-10T23:41:06.098Z,17.63
2023-05-10T23:43:32.629Z,21.03
2023-05-10T23:45:59.369Z,22.50
2023-05-10T23:48:26.105Z,19.10
2023-05-10T23:50:52.795Z,19.30
2023-05-10T23:53:19.386Z,19.37
2023-05-10T23:55:46.172Z,20.67
2023-05-10T23:58:12.737Z,19.53
